createdAt,value
2024-02-29T00:02:11.955Z,3.26
2024-02-29T00:04:38.535Z,3.27
2024-02-29T00:07:06.167Z,3.29
2024-02-29T00:09:33.281Z,3.38
2024-02-29T00:12:00.040Z,3.38
2024-02-29T00:14:26.582Z,3.37
2024-02-29T00:16:53.264Z,3.38
2024-02-29T00:19:21.138Z,3.44
2024-02-29T00:21:47.923Z,3.39
2024-02-29T00:24:14.595Z,3.37
2024-02-29T00:26:41.147Z,3.36
2024-02-29T00:29:08.384Z,3.37
2024-02-29T00:31:35.512Z,3.32
2024-02-29T00:34:02.328Z,3.29
2024-02-29T00:36:29.042Z,3.32
2024-02-29T00:39:05.730Z,3.33
2024-02-29T00:41:38.424Z,3.19
2024-02-29T00:44:05.119Z,3.29
2024-02-29T00:46:31.724Z,3.41
2024-02-29T00:48:58.449Z,3.30
2024-02-29T00:51:24.984Z,3.23
2024-02-29T00:53:51.634Z,3.14
2024-02-29T00:56:18.750Z,3.18
2024-02-29T00:58:45.307Z,3.18
2024-02-29T01:01:11.904Z,3.15
2024-02-29T01:03:38.661Z,3.15
2024-02-29T01:06:05.729Z,3.06
2024-02-29T01:08:32.345Z,2.96
2024-02-29T01:10:58.990Z,2.90
2024-02-29T01:13:25.532Z,2.88
2024-02-29T01:15:52.248Z,2.95
2024-02-29T01:18:18.960Z,2.96
2024-02-29T01:20:45.621Z,3.00
2024-02-29T01:23:12.154Z,2.92
2024-02-29T01:25:38.667Z,2.92
2024-02-29T01:28:05.327Z,2.89
2024-02-29T01:30:31.992Z,2.75
2024-02-29T01:32:58.633Z,2.52
2024-02-29T01:35:25.284Z,2.38
2024-02-29T01:37:51.891Z,2.29
2024-02-29T01:40:20.172Z,2.28
2024-02-29T01:42:47.045Z,2.43
2024-02-29T01:45:14.810Z,2.51
2024-02-29T01:47:41.423Z,2.49
2024-02-29T01:50:09.701Z,2.44
2024-02-29T01:52:38.354Z,2.52
2024-02-29T01:55:05.061Z,2.52
2024-02-29T01:57:32.421Z,2.53
2024-02-29T01:59:59.108Z,2.54
2024-02-29T02:02:26.282Z,2.59
2024-02-29T02:04:52.834Z,2.66
2024-02-29T02:07:19.456Z,2.66
2024-02-29T02:09:46.969Z,2.67
2024-02-29T02:12:13.718Z,2.63
2024-02-29T02:14:40.628Z,2.65
2024-02-29T02:17:07.687Z,2.62
2024-02-29T02:19:34.266Z,2.59
2024-02-29T02:22:00.856Z,2.52
2024-02-29T02:24:27.477Z,2.45
2024-02-29T02:26:54.096Z,2.37
2024-02-29T02:29:20.633Z,2.33
2024-02-29T02:31:47.368Z,2.26
2024-02-29T02:34:14.937Z,2.22
2024-02-29T02:36:41.571Z,2.18
2024-02-29T02:39:09.156Z,2.16
2024-02-29T02:41:35.723Z,2.13
2024-02-29T02:44:02.236Z,2.14
2024-02-29T02:46:28.763Z,2.13
2024-02-29T02:48:55.314Z,2.13
2024-02-29T02:51:25.781Z,2.05
2024-02-29T02:53:52.282Z,2.07
2024-02-29T02:56:18.804Z,2.05
2024-02-29T02:58:45.518Z,2.02
2024-02-29T03:01:12.133Z,2.07
2024-02-29T03:03:38.769Z,2.04
2024-02-29T03:06:05.469Z,1.98
2024-02-29T03:08:32.721Z,1.93
2024-02-29T03:10:59.227Z,1.84
2024-02-29T03:13:25.821Z,1.84
2024-02-29T03:15:52.374Z,1.85
2024-02-29T03:18:18.922Z,1.85
2024-02-29T03:20:45.486Z,1.84
2024-02-29T03:23:12.012Z,1.73
2024-02-29T03:25:38.573Z,1.72
2024-02-29T03:28:05.305Z,1.65
2024-02-29T03:30:31.978Z,1.62
2024-02-29T03:32:58.575Z,1.66
2024-02-29T03:35:25.122Z,1.71
2024-02-29T03:37:51.637Z,1.75
2024-02-29T03:40:18.295Z,1.81
2024-02-29T03:42:44.962Z,1.87
2024-02-29T03:45:11.531Z,1.88
2024-02-29T03:47:38.208Z,1.88
2024-02-29T03:50:05.023Z,1.94
2024-02-29T03:52:31.531Z,1.98
2024-02-29T03:54:58.125Z,2.01
2024-02-29T03:57:24.702Z,1.97
2024-02-29T03:59:52.468Z,1.65
2024-02-29T04:02:18.987Z,1.41
2024-02-29T04:04:47.680Z,1.46
2024-02-29T04:07:14.326Z,1.33
2024-02-29T04:09:41.030Z,1.24
2024-02-29T04:12:07.709Z,1.09
2024-02-29T04:14:39.540Z,1.11
2024-02-29T04:17:06.097Z,0.97
2024-02-29T04:19:32.688Z,0.90
2024-02-29T04:21:59.420Z,0.83
2024-02-29T04:24:25.996Z,0.74
2024-02-29T04:26:52.556Z,0.83
2024-02-29T04:29:19.152Z,0.75
2024-02-29T04:31:49.351Z,0.68
2024-02-29T04:34:16.054Z,0.75
2024-02-29T04:36:42.674Z,0.77
2024-02-29T04:39:09.214Z,0.69
2024-02-29T04:41:35.744Z,0.63
2024-02-29T04:44:02.313Z,0.69
2024-02-29T04:46:28.864Z,0.75
2024-02-29T04:48:55.494Z,0.77
2024-02-29T04:51:22.103Z,0.64
2024-02-29T04:53:48.642Z,0.53
2024-02-29T04:56:15.373Z,0.43
2024-02-29T04:58:41.917Z,0.26
2024-02-29T05:01:08.891Z,0.22
2024-02-29T05:03:36.024Z,0.24
2024-02-29T05:06:03.118Z,0.22
2024-02-29T05:08:29.623Z,0.32
2024-02-29T05:10:56.152Z,0.28
2024-02-29T05:13:22.703Z,0.27
2024-02-29T05:15:49.294Z,0.36
2024-02-29T05:18:15.873Z,0.43
2024-02-29T05:20:42.517Z,0.43
2024-02-29T05:23:09.322Z,0.54
2024-02-29T05:25:36.916Z,0.66
2024-02-29T05:28:03.571Z,0.65
2024-02-29T05:30:30.567Z,0.75
2024-02-29T05:32:57.137Z,0.77
2024-02-29T05:35:24.110Z,0.79
2024-02-29T05:37:50.785Z,0.85
2024-02-29T05:40:17.548Z,1.01
2024-02-29T05:42:44.225Z,1.01
2024-02-29T05:45:12.206Z,1.07
2024-02-29T05:47:38.927Z,1.11
2024-02-29T05:50:06.381Z,1.18
2024-02-29T05:52:33.023Z,1.27
2024-02-29T05:55:00.797Z,1.43
2024-02-29T05:57:31.649Z,1.45
2024-02-29T05:59:58.271Z,1.50
2024-02-29T06:02:24.837Z,1.52
2024-02-29T06:04:51.406Z,1.46
2024-02-29T06:07:18.061Z,1.59
2024-02-29T06:09:45.032Z,1.64
2024-02-29T06:12:11.743Z,1.72
2024-02-29T06:14:38.274Z,1.80
2024-02-29T06:17:05.045Z,1.86
2024-02-29T06:19:31.564Z,1.96
2024-02-29T06:21:58.178Z,2.02
2024-02-29T06:24:24.770Z,2.03
2024-02-29T06:26:51.318Z,2.14
2024-02-29T06:29:18.349Z,2.22
2024-02-29T06:31:44.858Z,2.34
2024-02-29T06:34:11.453Z,2.39
2024-02-29T06:36:38.052Z,2.42
2024-02-29T06:39:09.015Z,2.41
2024-02-29T06:41:39.545Z,2.42
2024-02-29T06:44:08.357Z,2.51
2024-02-29T06:46:35.203Z,2.54
2024-02-29T06:49:02.083Z,2.52
2024-02-29T06:51:31.310Z,2.73
2024-02-29T06:53:58.011Z,2.66
2024-02-29T06:56:24.678Z,2.70
2024-02-29T06:58:51.250Z,2.76
2024-02-29T07:01:21.209Z,2.84
2024-02-29T07:03:48.727Z,2.77
2024-02-29T07:06:15.714Z,2.84
2024-02-29T07:08:42.321Z,2.94
2024-02-29T07:11:12.810Z,3.11
2024-02-29T07:13:39.729Z,3.21
2024-02-29T07:16:06.514Z,3.36
2024-02-29T07:18:33.417Z,3.54
2024-02-29T07:21:00.169Z,3.69
2024-02-29T07:23:26.777Z,3.75
2024-02-29T07:25:53.394Z,3.93
2024-02-29T07:28:19.986Z,3.98
2024-02-29T07:30:46.635Z,4.06
2024-02-29T07:33:13.292Z,4.26
2024-02-29T07:35:39.928Z,4.48
2024-02-29T07:38:06.487Z,4.63
2024-02-29T07:40:33.065Z,4.61
2024-02-29T07:43:01.756Z,4.75
2024-02-29T07:45:29.209Z,4.91
2024-02-29T07:47:55.918Z,5.04
2024-02-29T07:50:22.480Z,5.21
2024-02-29T07:52:49.193Z,5.33
2024-02-29T07:55:17.842Z,5.51
2024-02-29T07:57:46.745Z,5.72
2024-02-29T08:00:13.713Z,5.79
2024-02-29T08:02:43.968Z,6.04
2024-02-29T08:05:10.906Z,6.08
2024-02-29T08:07:38.588Z,6.15
2024-02-29T08:10:05.790Z,6.21
2024-02-29T08:12:32.383Z,6.34
2024-02-29T08:14:58.926Z,6.39
2024-02-29T08:17:30.041Z,6.53
2024-02-29T08:19:57.697Z,6.58
2024-02-29T08:22:24.755Z,6.71
2024-02-29T08:24:52.177Z,6.78
2024-02-29T08:27:18.829Z,6.87
2024-02-29T08:29:45.401Z,7.04
2024-02-29T08:32:15.453Z,7.22
2024-02-29T08:34:42.494Z,7.46
2024-02-29T08:37:09.098Z,7.64
2024-02-29T08:39:36.180Z,7.87
2024-02-29T08:45:36.066Z,8.32
2024-02-29T08:48:02.808Z,8.46
2024-02-29T08:50:29.415Z,8.61
2024-02-29T08:52:56.481Z,8.66
2024-02-29T08:55:23.342Z,8.80
2024-02-29T08:57:49.931Z,8.92
2024-02-29T09:00:17.917Z,9.01
2024-02-29T09:02:46.144Z,9.33
2024-02-29T09:05:12.711Z,9.38
2024-02-29T09:07:39.260Z,9.47
2024-02-29T09:10:06.256Z,9.57
2024-02-29T09:12:32.795Z,9.64
2024-02-29T09:14:59.351Z,9.68
2024-02-29T09:17:25.908Z,9.75
2024-02-29T09:19:52.485Z,9.96
2024-02-29T09:22:19.182Z,10.13
2024-02-29T09:24:46.941Z,10.20
2024-02-29T09:27:14.108Z,10.25
2024-02-29T09:29:40.675Z,10.34
2024-02-29T09:32:07.564Z,10.36
2024-02-29T09:34:38.409Z,10.49
2024-02-29T09:37:06.706Z,10.51
2024-02-29T09:39:33.760Z,10.62
2024-02-29T09:42:12.375Z,10.63
2024-02-29T09:44:41.096Z,10.63
2024-02-29T09:47:09.396Z,10.68
2024-02-29T09:49:36.008Z,10.73
2024-02-29T09:52:02.630Z,10.86
2024-02-29T09:54:31.578Z,10.99
2024-02-29T09:56:58.098Z,11.07
2024-02-29T09:59:25.288Z,11.09
2024-02-29T10:01:56.554Z,11.19
2024-02-29T10:04:23.257Z,11.29
2024-02-29T10:06:49.908Z,11.41
2024-02-29T10:09:16.479Z,11.60
2024-02-29T10:11:43.900Z,11.65
2024-02-29T10:14:23.406Z,11.73
2024-02-29T10:16:53.860Z,11.52
2024-02-29T10:19:21.320Z,11.69
2024-02-29T10:21:48.259Z,11.82
2024-02-29T10:24:14.829Z,11.83
2024-02-29T10:26:41.744Z,11.80
2024-02-29T10:29:12.154Z,11.87
2024-02-29T10:31:39.907Z,11.85
2024-02-29T10:34:10.029Z,11.78
2024-02-29T10:36:36.704Z,11.94
2024-02-29T10:39:03.502Z,11.99
2024-02-29T10:41:31.429Z,12.14
2024-02-29T10:44:02.032Z,12.16
2024-02-29T10:46:29.127Z,12.22
2024-02-29T10:48:56.494Z,12.25
2024-02-29T10:51:32.667Z,12.33
2024-02-29T10:54:14.592Z,12.31
2024-02-29T10:56:45.950Z,12.33
2024-02-29T10:59:13.751Z,12.32
2024-02-29T11:01:40.542Z,12.55
2024-02-29T11:04:07.444Z,12.49
2024-02-29T11:06:36.495Z,12.50
2024-02-29T11:09:04.730Z,12.57
2024-02-29T11:11:31.283Z,12.60
2024-02-29T11:14:07.018Z,12.75
2024-02-29T11:16:34.262Z,12.64
2024-02-29T11:19:01.487Z,12.65
2024-02-29T11:21:29.856Z,12.68
2024-02-29T11:24:01.702Z,12.68
2024-02-29T11:26:28.553Z,12.82
2024-02-29T11:28:55.111Z,12.84
2024-02-29T11:31:22.195Z,12.90
2024-02-29T11:33:49.051Z,13.05
2024-02-29T11:36:15.739Z,13.14
2024-02-29T11:38:42.479Z,13.18
2024-02-29T11:41:19.169Z,13.22
2024-02-29T11:43:46.845Z,13.12
2024-02-29T11:46:15.415Z,13.15
2024-02-29T11:48:42.557Z,13.24
2024-02-29T11:51:10.533Z,13.28
2024-02-29T11:53:39.679Z,13.33
2024-02-29T11:56:14.547Z,13.42
2024-02-29T11:58:43.140Z,13.44
2024-02-29T12:01:13.633Z,13.38
2024-02-29T12:03:40.363Z,13.43
2024-02-29T12:06:07.226Z,13.48
2024-02-29T12:08:33.766Z,13.58
2024-02-29T12:11:00.985Z,13.60
2024-02-29T12:13:29.183Z,13.61
2024-02-29T12:15:56.368Z,13.71
2024-02-29T12:18:23.631Z,13.60
2024-02-29T12:20:50.778Z,13.49
2024-02-29T12:23:17.431Z,13.60
2024-02-29T12:25:44.842Z,13.48
2024-02-29T12:28:11.848Z,13.48
2024-02-29T12:30:38.470Z,13.46
2024-02-29T12:33:05.710Z,13.60
2024-02-29T12:35:33.184Z,13.66
2024-02-29T12:38:03.047Z,13.63
2024-02-29T12:40:30.883Z,13.56
2024-02-29T12:42:58.858Z,13.63
2024-02-29T12:45:28.022Z,13.68
2024-02-29T12:47:55.713Z,13.57
2024-02-29T12:50:22.966Z,13.57
2024-02-29T12:52:55.061Z,13.52
2024-02-29T12:55:24.551Z,13.61
2024-02-29T12:57:51.231Z,13.54
2024-02-29T13:00:25.244Z,13.56
2024-02-29T13:02:52.570Z,13.60
2024-02-29T13:05:20.638Z,13.63
2024-02-29T13:07:47.496Z,13.65
2024-02-29T13:10:14.098Z,13.74
2024-02-29T13:12:41.515Z,13.75
2024-02-29T13:15:08.517Z,13.77
2024-02-29T13:17:35.366Z,13.81
2024-02-29T13:20:02.339Z,13.80
2024-02-29T13:22:28.937Z,13.71
2024-02-29T13:24:55.578Z,13.70
2024-02-29T13:27:22.315Z,13.70
2024-02-29T13:29:48.881Z,13.75
2024-02-29T13:32:15.537Z,13.73
2024-02-29T13:34:42.138Z,13.79
2024-02-29T13:37:08.874Z,13.71
2024-02-29T13:39:35.472Z,13.66
2024-02-29T13:42:06.499Z,13.62
2024-02-29T13:44:33.739Z,13.62
2024-02-29T13:47:00.802Z,13.56
2024-02-29T13:49:27.510Z,13.46
2024-02-29T13:51:57.453Z,13.46
2024-02-29T13:54:24.222Z,13.50
2024-02-29T13:56:54.440Z,13.50
2024-02-29T13:59:21.490Z,13.47
2024-02-29T14:01:48.521Z,13.51
2024-02-29T14:04:16.724Z,13.45
2024-02-29T14:06:44.206Z,13.35
2024-02-29T14:09:14.794Z,13.26
2024-02-29T14:11:41.458Z,13.26
2024-02-29T14:14:08.316Z,13.20
2024-02-29T14:16:35.061Z,13.13
2024-02-29T14:19:01.725Z,13.09
2024-02-29T14:21:28.808Z,13.02
2024-02-29T14:23:55.366Z,12.97
2024-02-29T14:26:23.148Z,12.98
2024-02-29T14:28:50.519Z,12.98
2024-02-29T14:31:17.144Z,12.89
2024-02-29T14:33:44.049Z,12.90
2024-02-29T14:36:12.860Z,12.81
2024-02-29T14:38:39.873Z,12.68
2024-02-29T14:41:06.459Z,12.57
2024-02-29T14:43:33.051Z,12.53
2024-02-29T14:45:59.684Z,12.42
2024-02-29T14:48:26.365Z,12.32
2024-02-29T14:50:53.470Z,12.23
2024-02-29T14:53:20.025Z,12.14
2024-02-29T14:55:46.652Z,12.11
2024-02-29T14:58:13.298Z,12.12
2024-02-29T15:00:40.327Z,12.05
2024-02-29T15:03:06.978Z,12.05
2024-02-29T15:05:33.549Z,12.03
2024-02-29T15:08:02.218Z,11.95
2024-02-29T15:10:28.842Z,11.87
2024-02-29T15:12:55.561Z,11.79
2024-02-29T15:15:22.160Z,11.68
2024-02-29T15:17:49.043Z,11.64
2024-02-29T15:20:15.632Z,11.66
2024-02-29T15:22:43.096Z,11.66
2024-02-29T15:25:17.636Z,11.59
2024-02-29T15:27:46.817Z,11.51
2024-02-29T15:30:13.605Z,11.35
2024-02-29T15:32:40.215Z,11.27
2024-02-29T15:35:07.241Z,11.20
2024-02-29T15:37:33.896Z,11.19
2024-02-29T15:40:00.837Z,11.14
2024-02-29T15:42:27.747Z,11.11
2024-02-29T15:44:54.770Z,11.06
2024-02-29T15:47:21.319Z,11.01
2024-02-29T15:49:49.343Z,10.90
2024-02-29T15:52:17.280Z,10.89
2024-02-29T15:54:44.431Z,10.89
2024-02-29T15:57:11.944Z,10.85
2024-02-29T15:59:38.751Z,10.78
2024-02-29T16:02:05.402Z,10.75
2024-02-29T16:04:32.551Z,10.64
2024-02-29T16:07:02.365Z,10.58
2024-02-29T16:09:30.674Z,10.55
2024-02-29T16:11:57.294Z,10.47
2024-02-29T16:14:24.082Z,10.37
2024-02-29T16:16:50.675Z,10.30
2024-02-29T16:19:17.259Z,10.26
2024-02-29T16:21:43.988Z,10.20
2024-02-29T16:24:10.596Z,10.16
2024-02-29T16:26:37.700Z,10.07
2024-02-29T16:29:04.326Z,10.05
2024-02-29T16:31:31.083Z,9.94
2024-02-29T16:33:57.793Z,9.93
2024-02-29T16:36:24.590Z,9.91
2024-02-29T16:38:51.206Z,9.88
2024-02-29T16:41:17.793Z,9.85
2024-02-29T16:43:44.451Z,9.81
2024-02-29T16:46:11.531Z,9.78
2024-02-29T16:48:38.565Z,9.68
2024-02-29T16:51:05.748Z,9.57
2024-02-29T16:53:32.460Z,9.50
2024-02-29T16:55:59.847Z,9.52
2024-02-29T16:58:26.676Z,9.42
2024-02-29T17:00:55.471Z,9.39
2024-02-29T17:03:22.161Z,9.29
2024-02-29T17:05:48.762Z,9.31
2024-02-29T17:08:15.415Z,9.29
2024-02-29T17:10:42.284Z,9.26
2024-02-29T17:13:09.060Z,9.21
2024-02-29T17:15:38.334Z,9.14
2024-02-29T17:18:05.301Z,9.13
2024-02-29T17:20:31.915Z,9.08
2024-02-29T17:22:58.584Z,9.02
2024-02-29T17:25:25.248Z,9.00
2024-02-29T17:27:53.855Z,8.98
2024-02-29T17:30:21.347Z,8.87
2024-02-29T17:32:50.895Z,8.83
2024-02-29T17:35:17.459Z,8.76
2024-02-29T17:37:44.946Z,8.74
2024-02-29T17:40:11.933Z,8.77
2024-02-29T17:42:38.594Z,8.71
2024-02-29T17:45:05.702Z,8.59
2024-02-29T17:47:32.469Z,8.53
2024-02-29T17:49:59.043Z,8.46
2024-02-29T17:52:26.390Z,8.36
2024-02-29T17:54:55.120Z,8.26
2024-02-29T17:57:21.695Z,8.28
2024-02-29T17:59:48.302Z,8.21
2024-02-29T18:02:14.879Z,8.15
2024-02-29T18:04:41.556Z,8.13
2024-02-29T18:07:08.147Z,8.02
2024-02-29T18:09:34.723Z,8.02
2024-02-29T18:12:01.309Z,8.00
2024-02-29T18:14:30.118Z,7.93
2024-02-29T18:16:57.649Z,7.88
2024-02-29T18:19:24.481Z,7.84
2024-02-29T18:21:51.213Z,7.75
2024-02-29T18:24:17.926Z,7.73
2024-02-29T18:26:44.735Z,7.67
2024-02-29T18:29:11.443Z,7.57
2024-02-29T18:31:38.002Z,7.48
2024-02-29T18:34:04.619Z,7.49
2024-02-29T18:36:31.224Z,7.45
2024-02-29T18:38:57.767Z,7.45
2024-02-29T18:41:26.294Z,7.34
2024-02-29T18:43:53.331Z,7.20
2024-02-29T18:46:20.068Z,7.20
2024-02-29T18:48:46.723Z,7.24
2024-02-29T18:51:13.301Z,7.24
2024-02-29T18:53:40.702Z,7.25
2024-02-29T18:56:07.315Z,7.09
2024-02-29T18:58:33.952Z,6.90
2024-02-29T19:01:00.602Z,6.76
2024-02-29T19:03:27.255Z,6.80
2024-02-29T19:05:54.458Z,6.78
2024-02-29T19:08:22.760Z,6.89
2024-02-29T19:10:49.438Z,6.81
2024-02-29T19:13:17.174Z,6.73
2024-02-29T19:15:43.821Z,6.73
2024-02-29T19:18:10.563Z,6.77
2024-02-29T19:20:37.132Z,6.80
2024-02-29T19:23:03.898Z,6.66
2024-02-29T19:25:30.577Z,6.65
2024-02-29T19:27:57.176Z,6.67
2024-02-29T19:30:23.843Z,6.74
2024-02-29T19:32:50.508Z,6.81
2024-02-29T19:35:17.027Z,6.83
2024-02-29T19:37:43.705Z,6.84
2024-02-29T19:40:10.324Z,6.79
2024-02-29T19:42:39.178Z,6.79
2024-02-29T19:45:06.853Z,6.70
2024-02-29T19:47:33.426Z,6.72
2024-02-29T19:50:00.132Z,6.72
2024-02-29T19:52:27.464Z,6.70
2024-02-29T19:54:54.178Z,6.73
2024-02-29T19:57:20.838Z,6.65
2024-02-29T19:59:47.502Z,6.58
2024-02-29T20:02:14.191Z,6.58
2024-02-29T20:04:40.817Z,6.58
2024-02-29T20:07:07.374Z,6.61
2024-02-29T20:09:34.364Z,6.69
2024-02-29T20:12:02.912Z,6.68
2024-02-29T20:14:29.500Z,6.57
2024-02-29T20:16:56.082Z,6.50
2024-02-29T20:19:22.712Z,6.52
2024-02-29T20:21:49.341Z,6.52
2024-02-29T20:24:15.905Z,6.36
2024-02-29T20:26:44.519Z,6.21
2024-02-29T20:29:11.082Z,6.07
2024-02-29T20:31:37.614Z,6.15
2024-02-29T20:34:04.231Z,6.31
2024-02-29T20:36:30.993Z,6.31
2024-02-29T20:38:57.968Z,6.23
2024-02-29T20:41:24.542Z,6.24
2024-02-29T20:43:51.071Z,6.23
2024-02-29T20:46:18.032Z,6.28
2024-02-29T20:48:45.971Z,6.31
2024-02-29T20:51:12.730Z,6.27
2024-02-29T20:53:39.284Z,6.21
2024-02-29T20:56:06.126Z,5.99
2024-02-29T20:58:32.825Z,5.80
2024-02-29T21:01:00.044Z,5.79
2024-02-29T21:03:26.923Z,5.66
2024-02-29T21:05:54.687Z,5.70
2024-02-29T21:08:21.223Z,5.79
2024-02-29T21:10:48.535Z,5.84
2024-02-29T21:13:15.222Z,5.92
2024-02-29T21:15:41.844Z,5.96
2024-02-29T21:18:08.432Z,5.61
2024-02-29T21:20:35.239Z,5.56
2024-02-29T21:23:01.825Z,5.46
2024-02-29T21:25:28.429Z,5.21
2024-02-29T21:27:54.997Z,5.14
2024-02-29T21:30:21.543Z,5.21
2024-02-29T21:32:49.995Z,5.27
2024-02-29T21:35:20.403Z,5.22
2024-02-29T21:37:47.328Z,5.13
2024-02-29T21:40:14.412Z,5.02
2024-02-29T21:42:41.106Z,5.14
2024-02-29T21:45:08.480Z,5.18
2024-02-29T21:47:35.027Z,5.11
2024-02-29T21:50:01.639Z,5.02
2024-02-29T21:52:28.292Z,5.12
2024-02-29T21:54:55.242Z,5.16
2024-02-29T21:57:21.897Z,5.18
2024-02-29T21:59:48.452Z,5.21
2024-02-29T22:02:15.100Z,5.22
2024-02-29T22:04:41.667Z,5.19
2024-02-29T22:07:08.275Z,5.19
2024-02-29T22:09:34.833Z,5.19
2024-02-29T22:12:01.610Z,5.07
2024-02-29T22:14:28.455Z,4.99
2024-02-29T22:16:55.680Z,5.01
2024-02-29T22:19:25.278Z,4.96
2024-02-29T22:21:52.048Z,4.96
2024-02-29T22:24:18.783Z,4.94
2024-02-29T22:26:45.319Z,4.94
2024-02-29T22:29:12.964Z,4.99
2024-02-29T22:31:41.010Z,5.07
2024-02-29T22:34:07.729Z,5.06
2024-02-29T22:36:34.330Z,5.08
2024-02-29T22:39:00.861Z,5.08
2024-02-29T22:41:27.441Z,5.16
2024-02-29T22:43:53.935Z,5.19
2024-02-29T22:46:20.550Z,5.25
2024-02-29T22:48:47.170Z,5.25
2024-02-29T22:51:13.700Z,5.07
2024-02-29T22:53:40.178Z,5.04
2024-02-29T22:56:06.931Z,5.11
2024-02-29T22:58:34.322Z,5.08
2024-02-29T23:01:01.081Z,5.09
2024-02-29T23:03:27.639Z,5.12
2024-02-29T23:05:54.188Z,5.02
2024-02-29T23:08:20.753Z,4.99
2024-02-29T23:10:47.368Z,4.90
2024-02-29T23:13:14.029Z,4.94
2024-02-29T23:15:40.610Z,4.81
2024-02-29T23:18:07.713Z,4.65
2024-02-29T23:20:34.734Z,4.64
2024-02-29T23:23:01.834Z,4.61
2024-02-29T23:25:28.838Z,4.59
2024-02-29T23:27:55.488Z,4.60
2024-02-29T23:30:22.171Z,4.50
2024-02-29T23:32:48.683Z,4.40
2024-02-29T23:35:15.244Z,4.34
2024-02-29T23:37:41.779Z,4.28
2024-02-29T23:40:08.660Z,4.28
2024-02-29T23:42:35.286Z,4.26
2024-02-29T23:45:02.008Z,4.25
2024-02-29T23:47:28.679Z,4.28
2024-02-29T23:49:55.264Z,4.23
2024-02-29T23:52:21.942Z,4.16
2024-02-29T23:54:48.597Z,4.14
2024-02-29T23:57:15.167Z,4.16
2024-02-29T23:59:41.680Z,4.17
